Time;durP1;ratioP1;P1;durP2;ratioP2;P2;SDS_P1;SDS_P2;PMS_P1;PMS_P2;Temp;Humidity;BMP_temperature;BMP_pressure;BME280_temperature;BME280_humidity;BME280_pressure;Samples;Min_cycle;Max_cycle;Signal;HPM_P1;HPM_P2
2023/04/29 00:01:51;;;;;;;1.23;1.10;;;9.90;99.90;;;;;;5140283;27;20206;-79
2023/04/29 00:04:19;;;;;;;1.43;1.10;;;9.90;99.90;;;;;;5135288;27;20209;-80
2023/04/29 00:06:49;;;;;;;1.60;1.10;;;9.90;99.90;;;;;;5135382;27;20248;-80
2023/04/29 00:09:17;;;;;;;1.00;0.80;;;9.80;99.90;;;;;;5156634;27;20201;-77
2023/04/29 00:11:46;;;;;;;1.10;0.90;;;9.80;99.90;;;;;;5156047;27;20678;-79
2023/04/29 00:14:15;;;;;;;1.30;1.20;;;9.80;99.90;;;;;;5156332;27;20581;-77
2023/04/29 00:16:43;;;;;;;2.50;1.00;;;9.70;99.90;;;;;;5147327;27;20209;-80
2023/04/29 00:19:11;;;;;;;1.90;1.10;;;9.70;99.90;;;;;;5152243;27;20767;-79
2023/04/29 00:21:40;;;;;;;0.80;0.80;;;9.70;99.90;;;;;;5155651;27;20216;-79
2023/04/29 00:24:09;;;;;;;0.77;0.60;;;9.70;99.90;;;;;;5155560;27;20205;-80
2023/04/29 00:26:37;;;;;;;0.97;0.87;;;9.70;99.90;;;;;;5143732;27;20216;-80
2023/04/29 00:29:05;;;;;;;1.90;0.83;;;9.60;99.90;;;;;;5136882;27;20205;-77
2023/04/29 00:31:33;;;;;;;0.90;0.90;;;9.60;99.90;;;;;;5135197;27;20209;-79
2023/04/29 00:34:01;;;;;;;1.27;0.70;;;9.60;99.90;;;;;;5134759;27;20637;-77
2023/04/29 00:36:30;;;;;;;1.97;0.70;;;9.50;99.90;;;;;;5134738;27;20213;-79
2023/04/29 00:38:58;;;;;;;1.80;0.80;;;9.50;99.90;;;;;;5134561;27;20236;-79
2023/04/29 00:41:28;;;;;;;3.03;0.80;;;9.60;99.90;;;;;;5134843;27;20210;-78
2023/04/29 00:43:56;;;;;;;2.80;0.87;;;9.50;99.90;;;;;;5134364;27;20552;-75
2023/04/29 00:46:24;;;;;;;1.63;0.70;;;9.50;99.90;;;;;;5134549;27;20201;-78
2023/04/29 00:48:52;;;;;;;0.73;0.70;;;9.50;99.90;;;;;;5134960;27;20301;-77
2023/04/29 00:51:20;;;;;;;0.90;0.90;;;9.50;99.90;;;;;;5134620;27;20206;-78
2023/04/29 00:53:48;;;;;;;1.10;0.80;;;9.50;99.90;;;;;;5133249;27;20569;-78
2023/04/29 00:56:19;;;;;;;0.80;0.80;;;9.60;99.90;;;;;;5134077;27;20222;-79
2023/04/29 00:58:50;;;;;;;1.13;0.80;;;9.60;99.90;;;;;;5134467;27;20192;-78
2023/04/29 01:01:20;;;;;;;2.93;0.90;;;9.50;99.90;;;;;;5134443;27;20263;-79
2023/04/29 01:03:49;;;;;;;1.40;0.80;;;9.60;99.90;;;;;;5133485;27;20206;-78
2023/04/29 01:06:29;;;;;;;1.87;0.80;;;9.50;99.90;;;;;;5134821;27;20201;-80
2023/04/29 01:09:14;;;;;;;0.93;0.93;;;9.50;99.90;;;;;;5134440;27;20617;-78
2023/04/29 01:11:53;;;;;;;0.93;0.90;;;9.60;99.90;;;;;;5141479;27;20216;-80
2023/04/29 01:14:24;;;;;;;0.97;0.97;;;9.60;99.90;;;;;;5134239;27;20216;-80
2023/04/29 01:16:52;;;;;;;0.80;0.80;;;9.60;99.90;;;;;;5143613;27;20196;-75
2023/04/29 01:19:37;;;;;;;0.80;0.80;;;9.60;99.90;;;;;;5154442;27;20566;-76
2023/04/29 01:22:05;;;;;;;0.90;0.90;;;9.60;99.90;;;;;;5136170;27;20212;-76
2023/04/29 01:24:35;;;;;;;2.43;1.00;;;9.60;99.90;;;;;;5134184;27;20659;-80
2023/04/29 01:27:14;;;;;;;2.60;0.80;;;9.60;99.90;;;;;;5134514;27;20202;-80
2023/04/29 01:29:50;;;;;;;1.10;0.90;;;9.60;99.90;;;;;;5133886;27;20677;-78
2023/04/29 01:32:26;;;;;;;1.37;1.17;;;9.60;99.90;;;;;;5133834;27;20266;-77
2023/04/29 01:35:04;;;;;;;1.03;0.90;;;9.60;99.90;;;;;;5133768;27;20220;-78
2023/04/29 01:37:46;;;;;;;1.23;0.93;;;9.60;99.90;;;;;;5133860;27;20197;-80
2023/04/29 01:40:22;;;;;;;1.70;1.00;;;9.60;99.90;;;;;;5133973;27;20583;-76
2023/04/29 01:43:00;;;;;;;1.27;1.17;;;9.60;99.90;;;;;;5115844;27;20209;-78
2023/04/29 01:45:29;;;;;;;1.20;1.10;;;9.60;99.90;;;;;;5115512;27;20185;-80
2023/04/29 01:47:59;;;;;;;1.00;1.00;;;9.60;99.90;;;;;;5133459;27;20206;-75
2023/04/29 01:50:27;;;;;;;1.47;1.10;;;9.60;99.90;;;;;;5133672;27;20566;-78
2023/04/29 01:52:55;;;;;;;1.40;1.30;;;9.70;99.90;;;;;;5133171;27;20208;-80
2023/04/29 01:55:24;;;;;;;1.27;1.17;;;9.70;99.90;;;;;;5133384;27;20328;-77
2023/04/29 01:57:52;;;;;;;2.27;1.40;;;9.70;99.90;;;;;;5132840;27;20205;-79
2023/04/29 02:00:20;;;;;;;1.37;1.27;;;9.60;99.90;;;;;;5133307;27;20292;-77
2023/04/29 02:02:48;;;;;;;1.13;1.13;;;9.60;99.90;;;;;;5133375;27;20201;-78
2023/04/29 02:05:17;;;;;;;1.30;1.20;;;9.70;99.90;;;;;;5133553;27;20222;-77
2023/04/29 02:07:45;;;;;;;1.17;1.13;;;9.70;99.90;;;;;;5133486;27;20201;-78
2023/04/29 02:10:13;;;;;;;1.40;1.27;;;9.70;99.90;;;;;;5133993;27;20216;-77
2023/04/29 02:12:42;;;;;;;1.40;1.30;;;9.70;99.90;;;;;;5133085;27;20288;-80
2023/04/29 02:15:10;;;;;;;1.30;1.20;;;9.70;99.90;;;;;;5141075;27;20680;-79
2023/04/29 02:17:38;;;;;;;1.57;1.47;;;9.70;99.90;;;;;;5153936;27;20200;-79
2023/04/29 02:20:09;;;;;;;1.33;1.23;;;9.70;99.90;;;;;;5153407;27;20232;-79
2023/04/29 02:22:37;;;;;;;1.53;1.30;;;9.70;99.90;;;;;;5153457;27;20217;-78
2023/04/29 02:25:06;;;;;;;1.40;1.30;;;9.70;99.90;;;;;;5152577;27;20211;-79
2023/04/29 02:27:34;;;;;;;1.70;1.33;;;9.70;99.90;;;;;;5153882;27;20211;-79
2023/04/29 02:30:04;;;;;;;2.30;1.50;;;9.70;99.90;;;;;;5153863;27;20207;-78
2023/04/29 02:32:32;;;;;;;1.40;1.30;;;9.70;99.90;;;;;;5150697;27;20300;-80
2023/04/29 02:35:00;;;;;;;2.40;1.47;;;9.70;99.90;;;;;;5134334;28;20240;-80
2023/04/29 02:37:28;;;;;;;1.93;1.30;;;9.70;99.90;;;;;;5133560;28;20269;-80
2023/04/29 02:39:56;;;;;;;1.33;1.30;;;9.70;99.90;;;;;;5133589;28;20225;-79
2023/04/29 02:42:24;;;;;;;1.70;1.40;;;9.70;99.90;;;;;;5133194;27;20206;-79
2023/04/29 02:44:52;;;;;;;1.80;1.10;;;9.60;99.90;;;;;;5133160;28;20213;-78
2023/04/29 02:47:21;;;;;;;1.77;1.40;;;9.60;99.90;;;;;;5132780;28;20216;-76
2023/04/29 02:49:49;;;;;;;1.67;1.40;;;9.60;99.90;;;;;;5132919;27;20216;-77
2023/04/29 02:52:18;;;;;;;1.77;1.60;;;9.60;99.90;;;;;;5136930;28;20209;-79
2023/04/29 02:54:46;;;;;;;2.07;1.57;;;9.60;99.90;;;;;;5139003;28;20296;-81
2023/04/29 02:57:14;;;;;;;2.30;1.50;;;9.50;99.90;;;;;;5133488;28;20209;-78
2023/04/29 02:59:43;;;;;;;2.43;1.70;;;9.60;99.90;;;;;;5151218;27;20216;-79
2023/04/29 03:02:11;;;;;;;4.03;1.70;;;9.60;99.90;;;;;;5154959;27;20618;-78
2023/04/29 03:04:41;;;;;;;2.30;1.63;;;9.60;99.90;;;;;;5154077;27;20209;-78
2023/04/29 03:07:09;;;;;;;2.33;1.60;;;9.60;99.90;;;;;;5145563;27;20289;-75
2023/04/29 03:09:37;;;;;;;2.00;1.80;;;9.60;99.90;;;;;;5132554;28;20213;-78
2023/04/29 03:12:05;;;;;;;1.93;1.80;;;9.60;99.90;;;;;;5132469;28;20736;-80
2023/04/29 03:14:35;;;;;;;2.53;1.70;;;9.50;99.90;;;;;;5146774;27;20259;-78
2023/04/29 03:17:03;;;;;;;2.37;1.70;;;9.50;99.90;;;;;;5145732;27;20206;-77
2023/04/29 03:19:32;;;;;;;1.80;1.70;;;9.60;99.90;;;;;;5136037;27;20743;-77
2023/04/29 03:22:01;;;;;;;2.80;1.80;;;9.50;99.90;;;;;;5135993;27;20564;-79
2023/04/29 03:24:29;;;;;;;2.37;1.60;;;9.60;99.90;;;;;;5136463;27;20208;-79
2023/04/29 03:26:58;;;;;;;1.87;1.77;;;9.60;99.90;;;;;;5136298;27;20273;-80
2023/04/29 03:29:27;;;;;;;2.37;1.83;;;9.60;99.90;;;;;;5137435;27;20205;-79
2023/04/29 03:31:55;;;;;;;3.10;1.90;;;9.60;99.90;;;;;;5135662;27;20211;-79
2023/04/29 03:34:24;;;;;;;2.03;1.70;;;9.60;99.90;;;;;;5136107;27;20221;-76
2023/04/29 03:36:52;;;;;;;2.13;1.90;;;9.60;99.90;;;;;;5136306;27;20330;-76
2023/04/29 03:39:21;;;;;;;2.80;2.30;;;9.60;99.90;;;;;;5135891;27;20217;-74
2023/04/29 03:41:49;;;;;;;2.77;2.20;;;9.60;99.90;;;;;;5135638;27;20279;-79
2023/04/29 03:44:17;;;;;;;2.60;2.33;;;9.60;99.90;;;;;;5136446;27;20213;-79
2023/04/29 03:46:46;;;;;;;2.80;2.30;;;9.60;99.90;;;;;;5136107;27;20211;-80
2023/04/29 03:49:14;;;;;;;3.73;2.50;;;9.60;99.90;;;;;;5135799;27;20209;-77
2023/04/29 03:51:44;;;;;;;3.73;2.73;;;9.60;99.90;;;;;;5136523;27;20273;-77
2023/04/29 03:54:12;;;;;;;3.40;2.70;;;9.60;99.90;;;;;;5135663;27;20241;-78
2023/04/29 03:56:42;;;;;;;2.70;2.50;;;9.70;99.90;;;;;;5135457;27;20236;-76
2023/04/29 03:59:10;;;;;;;3.40;2.90;;;9.70;99.90;;;;;;5135491;27;20205;-77
2023/04/29 04:01:38;;;;;;;2.80;2.50;;;9.70;99.90;;;;;;5135735;27;20312;-78
2023/04/29 04:04:06;;;;;;;2.60;2.40;;;9.70;99.90;;;;;;5135578;27;20241;-78
2023/04/29 04:06:34;;;;;;;4.37;2.40;;;9.60;99.90;;;;;;5135472;27;20214;-79
2023/04/29 04:09:02;;;;;;;4.50;2.63;;;9.60;99.90;;;;;;5135520;27;20217;-77
2023/04/29 04:11:30;;;;;;;2.90;2.60;;;9.60;99.90;;;;;;5135718;27;20201;-77
2023/04/29 04:14:00;;;;;;;2.87;2.60;;;9.60;99.90;;;;;;5135186;27;20651;-78
2023/04/29 04:16:28;;;;;;;3.03;2.63;;;9.70;99.90;;;;;;5135646;27;20213;-78
2023/04/29 04:18:56;;;;;;;3.57;2.70;;;9.70;99.90;;;;;;5135430;27;20262;-79
2023/04/29 04:21:24;;;;;;;2.67;2.47;;;9.80;99.90;;;;;;5135381;27;20241;-79
2023/04/29 04:23:52;;;;;;;3.30;2.57;;;9.80;99.90;;;;;;5135509;27;20222;-79
2023/04/29 04:26:20;;;;;;;3.80;2.70;;;9.90;99.90;;;;;;5135355;27;20220;-78
2023/04/29 04:28:48;;;;;;;3.00;2.63;;;9.90;99.90;;;;;;5134157;27;20213;-78
2023/04/29 04:31:17;;;;;;;3.10;2.80;;;9.90;99.90;;;;;;5135504;27;20561;-78
2023/04/29 04:33:46;;;;;;;3.70;2.83;;;10.00;99.90;;;;;;5143229;27;20204;-77
2023/04/29 04:36:13;;;;;;;3.90;2.40;;;10.00;99.90;;;;;;5134471;27;20217;-77
2023/04/29 04:38:42;;;;;;;3.00;2.70;;;10.00;99.90;;;;;;5134853;27;20212;-80
2023/04/29 04:41:10;;;;;;;3.67;2.40;;;10.10;99.90;;;;;;5134877;27;20232;-79
2023/04/29 04:43:38;;;;;;;3.20;2.70;;;10.10;99.90;;;;;;5134920;27;20209;-79
2023/04/29 04:46:17;;;;;;;2.80;2.40;;;10.10;99.90;;;;;;5134868;27;20408;-79
2023/04/29 04:48:45;;;;;;;4.47;2.70;;;10.10;99.90;;;;;;5135218;27;20655;-78
2023/04/29 04:51:14;;;;;;;2.97;2.67;;;10.20;99.90;;;;;;5134682;27;20205;-79
2023/04/29 04:53:42;;;;;;;4.70;2.90;;;10.20;99.90;;;;;;5140930;27;20201;-76
2023/04/29 04:56:10;;;;;;;3.13;2.83;;;10.30;99.90;;;;;;5155363;27;20275;-77
2023/04/29 04:58:38;;;;;;;3.10;2.70;;;10.30;99.90;;;;;;5156074;27;20295;-76
2023/04/29 05:01:06;;;;;;;3.30;2.73;;;10.50;99.90;;;;;;5153650;27;20230;-78
2023/04/29 05:03:35;;;;;;;3.10;2.90;;;10.50;99.90;;;;;;5135077;27;20293;-76
2023/04/29 05:06:04;;;;;;;3.13;2.70;;;10.60;99.90;;;;;;5135220;27;20247;-77
2023/04/29 05:08:32;;;;;;;5.30;3.07;;;10.70;99.90;;;;;;5134590;27;20331;-79
2023/04/29 05:11:00;;;;;;;3.40;2.70;;;10.90;99.90;;;;;;5135836;27;20338;-80
2023/04/29 05:13:28;;;;;;;3.80;2.60;;;11.00;99.90;;;;;;5134164;27;20214;-77
2023/04/29 05:15:56;;;;;;;5.03;2.77;;;11.20;99.90;;;;;;5134991;27;20313;-77
2023/04/29 05:18:24;;;;;;;3.23;2.70;;;11.30;99.90;;;;;;5134225;27;20240;-79
2023/04/29 05:20:53;;;;;;;3.40;2.60;;;11.40;99.90;;;;;;5134189;27;20193;-76
2023/04/29 05:23:21;;;;;;;3.10;2.80;;;11.50;99.90;;;;;;5136534;27;20284;-75
2023/04/29 05:25:49;;;;;;;2.83;2.63;;;11.60;99.90;;;;;;5134758;27;20211;-79
2023/04/29 05:28:18;;;;;;;4.77;2.60;;;11.60;99.90;;;;;;5134398;27;20293;-79
2023/04/29 05:30:46;;;;;;;3.50;2.90;;;11.80;99.90;;;;;;5134647;27;20515;-76
2023/04/29 05:33:14;;;;;;;2.93;2.50;;;11.90;99.90;;;;;;5152923;27;20200;-77
2023/04/29 05:35:43;;;;;;;2.80;2.50;;;12.00;99.90;;;;;;5160329;27;20295;-75
2023/04/29 05:38:12;;;;;;;4.07;2.50;;;12.00;99.90;;;;;;5156591;27;20536;-75
2023/04/29 05:40:41;;;;;;;3.93;2.60;;;12.00;99.90;;;;;;5161974;27;20196;-75
2023/04/29 05:43:09;;;;;;;3.40;2.47;;;12.10;99.90;;;;;;5153535;27;20231;-75
2023/04/29 05:45:37;;;;;;;4.60;2.80;;;12.20;99.90;;;;;;5154429;27;20204;-78
2023/04/29 05:48:05;;;;;;;2.53;2.30;;;12.20;99.90;;;;;;5157149;27;20212;-74
2023/04/29 05:50:35;;;;;;;2.80;2.50;;;12.20;99.90;;;;;;5165147;27;20608;-74
2023/04/29 05:53:03;;;;;;;4.23;3.30;;;12.20;99.90;;;;;;5150923;27;20604;-76
2023/04/29 05:55:33;;;;;;;2.97;2.60;;;12.20;99.90;;;;;;5161431;27;20220;-73
2023/04/29 05:58:01;;;;;;;3.93;2.50;;;12.30;99.90;;;;;;5148656;27;20205;-75
2023/04/29 06:00:30;;;;;;;2.87;2.57;;;12.40;99.90;;;;;;5163870;27;20212;-78
2023/04/29 06:02:58;;;;;;;3.33;2.57;;;12.50;99.90;;;;;;5157419;27;20681;-78
2023/04/29 06:05:27;;;;;;;3.57;2.20;;;12.80;99.90;;;;;;5162988;27;20205;-76
2023/04/29 06:07:55;;;;;;;2.10;1.90;;;13.60;99.90;;;;;;5168735;27;20542;-77
2023/04/29 06:10:23;;;;;;;2.00;1.80;;;14.80;99.90;;;;;;5153692;27;20564;-77
2023/04/29 06:12:53;;;;;;;2.83;1.60;;;15.70;99.90;;;;;;5153098;27;20200;-76
2023/04/29 06:15:21;;;;;;;1.63;1.50;;;16.70;99.90;;;;;;5156528;27;20205;-77
2023/04/29 06:17:49;;;;;;;2.30;1.80;;;17.20;99.90;;;;;;5153697;27;20290;-77
2023/04/29 06:20:17;;;;;;;1.83;1.63;;;17.70;99.90;;;;;;5150806;27;20201;-75
2023/04/29 06:22:46;;;;;;;2.23;2.03;;;18.40;99.90;;;;;;5155009;27;20220;-76
2023/04/29 06:25:14;;;;;;;2.80;2.27;;;19.00;99.90;;;;;;5152886;27;20205;-76
2023/04/29 06:27:42;;;;;;;3.37;2.10;;;18.80;99.90;;;;;;5154095;27;20208;-76
2023/04/29 06:30:12;;;;;;;3.53;2.13;;;19.20;99.90;;;;;;5154198;27;20205;-74
2023/04/29 06:32:40;;;;;;;3.03;1.80;;;19.40;99.90;;;;;;5154207;27;20605;-78
2023/04/29 06:35:09;;;;;;;2.07;1.87;;;19.60;99.90;;;;;;5150698;27;20219;-75
2023/04/29 06:37:37;;;;;;;6.50;5.90;;;20.30;99.90;;;;;;5132908;27;20577;-77
2023/04/29 06:40:06;;;;;;;2.97;2.33;;;20.30;99.90;;;;;;5132729;28;20254;-76
2023/04/29 06:42:35;;;;;;;7.70;6.63;;;20.60;99.90;;;;;;5132365;27;20320;-77
2023/04/29 06:45:04;;;;;;;3.33;3.03;;;20.80;99.90;;;;;;5132930;28;20213;-76
2023/04/29 06:47:33;;;;;;;4.60;4.20;;;21.30;99.90;;;;;;5149628;27;20244;-73
2023/04/29 06:50:01;;;;;;;4.43;3.70;;;21.40;99.90;;;;;;5155834;27;20224;-76
2023/04/29 06:52:30;;;;;;;4.43;4.03;;;21.70;99.90;;;;;;5158097;27;20221;-73
2023/04/29 06:54:58;;;;;;;4.97;2.20;;;20.80;99.90;;;;;;5157382;27;20216;-75
2023/04/29 06:57:26;;;;;;;3.40;2.37;;;19.70;99.90;;;;;;5137148;27;20213;-76
2023/04/29 06:59:54;;;;;;;2.60;2.30;;;18.80;99.90;;;;;;5137233;27;20212;-77
2023/04/29 07:02:22;;;;;;;3.23;2.80;;;17.80;99.90;;;;;;5136440;27;20229;-77
2023/04/29 07:04:51;;;;;;;3.50;2.60;;;17.00;99.90;;;;;;5135970;27;20580;-76
2023/04/29 07:07:20;;;;;;;5.10;2.70;;;16.30;99.90;;;;;;5136741;27;20309;-78
2023/04/29 07:09:50;;;;;;;4.03;2.73;;;15.60;99.90;;;;;;5157775;27;20295;-76
2023/04/29 07:12:19;;;;;;;3.20;2.90;;;15.40;99.90;;;;;;5156152;27;20606;-78
2023/04/29 07:14:47;;;;;;;4.37;3.13;;;15.20;99.90;;;;;;5157509;27;20674;-77
2023/04/29 07:17:15;;;;;;;3.10;2.83;;;14.90;99.90;;;;;;5163003;27;20205;-81
2023/04/29 07:19:43;;;;;;;4.77;3.87;;;14.80;99.90;;;;;;5157604;27;20248;-77
2023/04/29 07:22:12;;;;;;;5.70;4.03;;;14.60;99.90;;;;;;5161958;27;20269;-75
2023/04/29 07:24:40;;;;;;;4.13;3.83;;;14.50;99.90;;;;;;5153979;27;20241;-73
2023/04/29 07:27:08;;;;;;;5.27;4.37;;;14.60;99.90;;;;;;5137417;27;20206;-73
2023/04/29 07:29:37;;;;;;;5.63;4.60;;;14.50;99.90;;;;;;5136682;27;20236;-74
2023/04/29 07:32:05;;;;;;;4.70;4.20;;;14.60;99.90;;;;;;5136400;27;20576;-75
2023/04/29 07:34:33;;;;;;;4.90;4.20;;;15.00;99.90;;;;;;5136341;27;20218;-75
2023/04/29 07:37:01;;;;;;;4.67;4.27;;;15.10;99.90;;;;;;5136802;27;20205;-74
2023/04/29 07:39:31;;;;;;;4.87;4.37;;;15.20;99.90;;;;;;5136349;27;20296;-73
2023/04/29 07:42:00;;;;;;;5.90;4.60;;;15.20;99.90;;;;;;5136015;27;20589;-75
2023/04/29 07:44:28;;;;;;;5.20;4.00;;;15.30;99.90;;;;;;5135896;27;20244;-73
2023/04/29 07:46:56;;;;;;;5.40;3.87;;;15.60;99.90;;;;;;5135944;27;20205;-76
2023/04/29 07:49:24;;;;;;;6.10;4.40;;;15.90;99.90;;;;;;5146498;27;20209;-73
2023/04/29 07:51:52;;;;;;;4.63;3.97;;;16.50;99.90;;;;;;5156370;27;20223;-78
2023/04/29 07:54:21;;;;;;;4.57;3.90;;;16.90;99.90;;;;;;5156755;27;20209;-75
2023/04/29 07:56:50;;;;;;;4.17;3.67;;;17.10;99.90;;;;;;5156027;27;20225;-78
2023/04/29 07:59:18;;;;;;;4.40;3.27;;;18.20;99.90;;;;;;5136072;27;20627;-77
2023/04/29 08:01:46;;;;;;;2.97;2.77;;;19.80;99.90;;;;;;5135263;27;20556;-77
2023/04/29 08:04:14;;;;;;;3.40;2.80;;;20.40;99.90;;;;;;5134342;27;20667;-76
2023/04/29 08:06:43;;;;;;;4.43;3.13;;;20.40;99.90;;;;;;5155651;27;20566;-77
2023/04/29 08:09:11;;;;;;;3.40;2.80;;;21.30;99.90;;;;;;5164293;27;20299;-77
2023/04/29 08:11:39;;;;;;;2.63;2.43;;;21.90;99.90;;;;;;5160493;27;20209;-77
2023/04/29 08:14:09;;;;;;;2.93;2.63;;;21.80;99.90;;;;;;5157480;27;20683;-77
2023/04/29 08:16:37;;;;;;;2.50;2.30;;;22.00;99.90;;;;;;5163135;27;20200;-75
2023/04/29 08:19:05;;;;;;;2.60;2.40;;;22.90;99.90;;;;;;5133125;27;20213;-77
2023/04/29 08:21:33;;;;;;;2.45;2.28;;;22.30;99.90;;;;;;5134233;27;20244;-75
2023/04/29 08:24:01;;;;;;;3.80;2.40;;;22.60;99.90;;;;;;5132934;27;20272;-74
2023/04/29 08:26:29;;;;;;;2.45;2.05;;;23.20;99.90;;;;;;5144646;27;20205;-75
2023/04/29 08:28:57;;;;;;;2.50;2.30;;;23.60;99.90;;;;;;5155014;27;20208;-79
2023/04/29 08:31:27;;;;;;;3.45;2.45;;;23.50;99.90;;;;;;5155366;27;20208;-78
2023/04/29 08:33:57;;;;;;;2.38;2.13;;;22.30;99.90;;;;;;5153398;27;20514;-77
2023/04/29 08:36:27;;;;;;;3.00;2.30;;;22.40;99.90;;;;;;5134425;27;20212;-74
2023/04/29 08:38:55;;;;;;;2.85;2.20;;;23.00;99.90;;;;;;5135225;27;20301;-74
2023/04/29 08:41:24;;;;;;;2.70;2.15;;;23.80;99.90;;;;;;5134753;27;20250;-77
2023/04/29 08:43:52;;;;;;;2.72;2.22;;;25.80;99.90;;;;;;5133569;27;20233;-78
2023/04/29 08:46:21;;;;;;;2.50;1.90;;;25.80;99.90;;;;;;5134590;27;20243;-74
2023/04/29 08:48:51;;;;;;;2.13;1.92;;;26.50;98.30;;;;;;5134353;27;20223;-75
2023/04/29 08:51:20;;;;;;;2.35;2.00;;;26.20;98.40;;;;;;5134070;27;20742;-74
2023/04/29 08:53:48;;;;;;;5.35;2.00;;;26.60;95.70;;;;;;5133955;27;20233;-77
2023/04/29 08:56:20;;;;;;;3.35;1.80;;;26.90;96.20;;;;;;5134700;27;20232;-76
2023/04/29 08:58:53;;;;;;;2.95;2.00;;;25.70;96.60;;;;;;5135452;27;20212;-77
2023/04/29 09:01:22;;;;;;;2.45;1.85;;;23.90;99.30;;;;;;5152943;27;20215;-78
2023/04/29 09:04:04;;;;;;;2.75;2.00;;;22.50;99.90;;;;;;5154159;27;20213;-76
2023/04/29 09:06:33;;;;;;;2.57;2.17;;;20.80;99.90;;;;;;5154686;27;20686;-78
2023/04/29 09:09:02;;;;;;;3.17;2.37;;;20.20;99.90;;;;;;5154856;27;20219;-77
2023/04/29 09:11:31;;;;;;;2.80;1.90;;;20.10;99.90;;;;;;5138320;27;20229;-76
2023/04/29 09:14:01;;;;;;;3.00;2.03;;;20.10;99.90;;;;;;5133280;27;20237;-77
2023/04/29 09:16:29;;;;;;;3.30;2.20;;;19.80;99.90;;;;;;5160190;27;20253;-73
2023/04/29 09:18:58;;;;;;;2.07;1.80;;;19.50;99.90;;;;;;5157618;27;20624;-76
2023/04/29 09:21:31;;;;;;;4.70;2.20;;;19.30;99.90;;;;;;5179332;27;20204;-77
2023/04/29 09:24:00;;;;;;;2.10;1.90;;;18.70;99.90;;;;;;5159047;27;20203;-76
2023/04/29 09:26:40;;;;;;;3.40;2.10;;;18.40;99.90;;;;;;5175595;27;20299;-76
2023/04/29 09:29:10;;;;;;;2.53;1.60;;;19.50;99.90;;;;;;5155416;27;20291;-77
2023/04/29 09:31:39;;;;;;;2.03;1.60;;;21.30;99.90;;;;;;5149891;27;20727;-76
2023/04/29 09:34:10;;;;;;;2.07;1.70;;;22.90;99.90;;;;;;5164854;27;20217;-77
2023/04/29 09:36:40;;;;;;;4.53;2.97;;;22.80;99.90;;;;;;5153489;27;20208;-76
2023/04/29 09:39:11;;;;;;;4.87;2.77;;;22.10;99.90;;;;;;5141564;27;20244;-77
2023/04/29 09:41:40;;;;;;;8.50;4.70;;;21.50;99.90;;;;;;5132539;27;20191;-78
2023/04/29 09:44:10;;;;;;;2.33;1.80;;;20.20;99.90;;;;;;5131794;27;20299;-78
2023/04/29 09:46:38;;;;;;;6.30;2.93;;;20.30;99.90;;;;;;5133772;27;20296;-75
2023/04/29 09:49:23;;;;;;;1.70;1.60;;;21.90;99.90;;;;;;5135921;27;20229;-76
2023/04/29 09:51:56;;;;;;;2.85;1.70;;;23.40;99.90;;;;;;5136225;27;20236;-75
2023/04/29 09:54:27;;;;;;;4.38;1.73;;;24.80;99.90;;;;;;5151420;27;20307;-74
2023/04/29 09:56:56;;;;;;;3.33;1.60;;;24.70;98.00;;;;;;5151644;27;20615;-75
2023/04/29 09:59:25;;;;;;;2.13;1.40;;;24.40;97.70;;;;;;5151012;27;20238;-76
2023/04/29 10:01:55;;;;;;;1.35;1.17;;;24.40;99.10;;;;;;5153571;27;20201;-75
2023/04/29 10:04:42;;;;;;;3.20;1.55;;;24.00;99.70;;;;;;5162778;27;20209;-74
2023/04/29 10:07:15;;;;;;;1.73;1.30;;;22.80;99.90;;;;;;5134218;27;20223;-77
2023/04/29 10:09:45;;;;;;;1.57;1.30;;;21.50;99.90;;;;;;5133777;27;20201;-75
2023/04/29 10:12:17;;;;;;;1.77;1.43;;;20.70;99.90;;;;;;5131801;27;20223;-77
2023/04/29 10:14:50;;;;;;;1.60;1.50;;;19.80;99.90;;;;;;5146042;27;20305;-77
2023/04/29 10:17:28;;;;;;;3.20;1.50;;;19.30;99.90;;;;;;5142744;27;20723;-74
2023/04/29 10:20:04;;;;;;;1.67;1.30;;;18.70;99.90;;;;;;5160210;27;20188;-74
2023/04/29 10:22:41;;;;;;;1.57;1.40;;;18.30;99.90;;;;;;5158807;27;20200;-77
2023/04/29 10:25:10;;;;;;;2.57;1.30;;;17.40;99.90;;;;;;5155634;27;20196;-77
2023/04/29 10:27:42;;;;;;;2.43;1.50;;;17.60;99.90;;;;;;5153667;27;20208;-76
2023/04/29 10:30:12;;;;;;;3.27;1.50;;;17.80;99.90;;;;;;5152716;27;20620;-77
2023/04/29 10:32:41;;;;;;;3.43;1.50;;;19.30;99.90;;;;;;5153785;27;20776;-75
2023/04/29 10:35:24;;;;;;;1.60;1.10;;;21.10;99.90;;;;;;5143636;27;20224;-78
2023/04/29 10:37:54;;;;;;;2.87;1.80;;;22.70;99.90;;;;;;5131030;28;20728;-77
2023/04/29 10:40:28;;;;;;;1.38;1.23;;;24.40;99.90;;;;;;5150792;27;20236;-76
2023/04/29 10:42:57;;;;;;;1.20;1.10;;;25.30;98.60;;;;;;5147084;27;20203;-74
2023/04/29 10:45:27;;;;;;;1.48;1.05;;;25.90;93.90;;;;;;5137901;27;20208;-77
2023/04/29 10:48:15;;;;;;;1.50;1.17;;;26.30;92.60;;;;;;5148596;27;20217;-74
2023/04/29 10:51:08;;;;;;;2.35;1.40;;;26.20;92.90;;;;;;5157813;27;20291;-75
2023/04/29 10:53:56;;;;;;;2.10;1.15;;;24.70;91.40;;;;;;5147652;27;20204;-76
2023/04/29 10:56:36;;;;;;;2.53;1.30;;;24.40;93.80;;;;;;5153293;27;20205;-73
2023/04/29 10:59:04;;;;;;;1.30;1.00;;;23.50;94.90;;;;;;5153611;27;20205;-73
2023/04/29 11:01:44;;;;;;;2.60;1.60;;;23.50;95.20;;;;;;5143093;27;20201;-72
2023/04/29 11:04:12;;;;;;;2.15;1.55;;;24.00;96.00;;;;;;5133843;28;20216;-75
2023/04/29 11:06:46;;;;;;;1.67;1.13;;;25.00;93.90;;;;;;5153167;27;20204;-75
2023/04/29 11:09:19;;;;;;;3.83;2.78;;;25.40;93.90;;;;;;5153443;27;20308;-77
2023/04/29 11:12:03;;;;;;;2.25;1.73;;;25.20;93.10;;;;;;5161057;27;20200;-75
2023/04/29 11:14:35;;;;;;;4.35;3.10;;;24.10;92.20;;;;;;5164529;27;20271;-77
2023/04/29 11:17:07;;;;;;;4.28;1.70;;;23.70;93.70;;;;;;5153002;27;20592;-73
2023/04/29 11:19:37;;;;;;;1.80;1.27;;;23.00;95.90;;;;;;5153121;27;20292;-74
2023/04/29 11:22:13;;;;;;;4.13;1.97;;;22.50;95.90;;;;;;5153986;27;20219;-74
2023/04/29 11:24:55;;;;;;;2.87;1.37;;;22.30;96.20;;;;;;5156628;27;20272;-74
2023/04/29 11:27:25;;;;;;;1.93;1.00;;;21.90;95.30;;;;;;5159122;27;20597;-75
2023/04/29 11:29:57;;;;;;;1.10;0.97;;;21.70;95.30;;;;;;5159987;27;20205;-76
2023/04/29 11:32:26;;;;;;;1.17;1.07;;;22.30;97.30;;;;;;5157509;27;20684;-78
2023/04/29 11:34:54;;;;;;;1.70;1.10;;;22.70;97.70;;;;;;5148410;27;20233;-75
2023/04/29 11:37:26;;;;;;;2.10;0.73;;;23.00;95.30;;;;;;5136035;27;20240;-76
2023/04/29 11:40:00;;;;;;;2.10;0.97;;;22.60;91.50;;;;;;5147840;27;20240;-77
2023/04/29 11:42:28;;;;;;;1.53;0.90;;;22.60;90.80;;;;;;5153671;27;20306;-76
2023/04/29 11:44:59;;;;;;;4.80;1.20;;;22.60;95.10;;;;;;5144175;27;20291;-78
2023/04/29 11:47:28;;;;;;;0.93;0.93;;;21.60;93.80;;;;;;5155234;27;20288;-77
2023/04/29 11:50:04;;;;;;;1.80;1.10;;;21.60;93.60;;;;;;5156592;27;20201;-77
2023/04/29 11:52:35;;;;;;;3.63;0.87;;;21.20;94.30;;;;;;5153917;27;20306;-76
2023/04/29 11:55:04;;;;;;;2.50;0.90;;;21.30;93.70;;;;;;5156190;27;20247;-80
2023/04/29 11:57:32;;;;;;;1.13;1.00;;;21.10;95.30;;;;;;5166038;27;20196;-77
2023/04/29 12:00:01;;;;;;;1.17;1.07;;;21.00;95.90;;;;;;5165542;27;20228;-72
2023/04/29 12:02:31;;;;;;;2.20;0.93;;;20.20;96.10;;;;;;5155574;27;20670;-79
2023/04/29 12:05:00;;;;;;;1.83;1.13;;;20.20;96.90;;;;;;5156267;27;20197;-78
2023/04/29 12:07:29;;;;;;;0.90;0.90;;;20.10;96.10;;;;;;5153646;27;20277;-75
2023/04/29 12:09:59;;;;;;;1.57;1.00;;;20.40;97.00;;;;;;5155616;27;20197;-78
2023/04/29 12:12:28;;;;;;;1.53;1.03;;;20.30;96.20;;;;;;5156500;27;20209;-76
2023/04/29 12:14:56;;;;;;;0.70;0.70;;;20.50;96.20;;;;;;5156041;27;20229;-74
2023/04/29 12:17:24;;;;;;;1.10;0.70;;;20.30;98.60;;;;;;5143887;27;20221;-76
2023/04/29 12:19:53;;;;;;;0.90;0.90;;;20.00;97.30;;;;;;5150148;27;20232;-78
2023/04/29 12:22:21;;;;;;;0.97;0.87;;;20.00;97.60;;;;;;5155529;27;20259;-76
2023/04/29 12:24:53;;;;;;;1.10;0.93;;;20.00;97.30;;;;;;5157080;27;20197;-76
2023/04/29 12:27:23;;;;;;;2.10;1.00;;;20.40;97.30;;;;;;5154547;27;20666;-79
2023/04/29 12:29:52;;;;;;;1.47;1.00;;;20.90;96.10;;;;;;5140939;27;20192;-77
2023/04/29 12:32:23;;;;;;;1.00;0.90;;;20.50;95.80;;;;;;5149712;27;20213;-75
2023/04/29 12:34:52;;;;;;;0.80;0.70;;;20.50;95.00;;;;;;5148416;27;20204;-75
2023/04/29 12:37:23;;;;;;;1.23;0.90;;;20.10;96.00;;;;;;5149264;27;20232;-76
2023/04/29 12:39:51;;;;;;;2.10;1.10;;;20.20;95.40;;;;;;5152235;27;20197;-76
2023/04/29 12:42:19;;;;;;;1.20;1.10;;;19.90;97.30;;;;;;5146637;27;20569;-76
2023/04/29 12:44:49;;;;;;;2.93;1.10;;;19.50;99.90;;;;;;5140925;27;20225;-78
2023/04/29 12:47:17;;;;;;;1.73;1.10;;;19.50;99.90;;;;;;5143483;27;20752;-77
2023/04/29 12:49:48;;;;;;;2.03;1.10;;;19.60;99.10;;;;;;5135386;27;20213;-77
2023/04/29 12:52:16;;;;;;;2.67;1.17;;;19.50;98.80;;;;;;5155636;27;20185;-77
2023/04/29 12:54:44;;;;;;;1.10;1.00;;;19.30;98.10;;;;;;5141421;27;20219;-78
2023/04/29 12:57:12;;;;;;;0.60;0.60;;;19.50;98.50;;;;;;5146592;27;20634;-77
2023/04/29 12:59:41;;;;;;;1.27;0.87;;;19.70;98.80;;;;;;5155437;27;20217;-75
2023/04/29 13:02:11;;;;;;;1.20;0.80;;;19.90;97.30;;;;;;5152476;27;20227;-75
2023/04/29 13:04:39;;;;;;;3.07;0.97;;;19.80;97.40;;;;;;5135466;27;20233;-76